createdAt,value
2023-05-15T00:00:37.478Z,0.90
2023-05-15T00:01:37.506Z,1.00
2023-05-15T00:02:38.339Z,1.00
2023-05-15T00:03:37.736Z,1.00
2023-05-15T00:04:37.479Z,0.80
2023-05-15T00:05:37.633Z,0.80
2023-05-15T00:06:37.411Z,1.00
2023-05-15T00:07:37.420Z,0.90
2023-05-15T00:08:37.619Z,0.90
2023-05-15T00:09:37.385Z,0.90
2023-05-15T00:10:38.284Z,0.90
2023-05-15T00:11:37.983Z,0.90
2023-05-15T00:12:38.241Z,1.30
2023-05-15T00:13:38.252Z,0.90
2023-05-15T00:14:37.311Z,0.80
2023-05-15T00:15:37.326Z,0.80
2023-05-15T00:16:37.327Z,1.00
2023-05-15T00:17:37.328Z,0.90
2023-05-15T00:18:37.337Z,1.10
2023-05-15T00:19:37.275Z,1.00
2023-05-15T00:20:37.250Z,0.80
2023-05-15T00:21:37.262Z,0.80
2023-05-15T00:22:37.216Z,1.10
2023-05-15T00:23:37.348Z,1.00
2023-05-15T00:24:37.202Z,0.90
2023-05-15T00:25:37.218Z,0.80
2023-05-15T00:26:37.202Z,0.90
2023-05-15T00:27:37.187Z,1.00
2023-05-15T00:28:37.173Z,1.00
2023-05-15T00:29:37.269Z,1.10
2023-05-15T00:30:37.146Z,1.20
2023-05-15T00:31:37.176Z,1.00
2023-05-15T00:32:37.142Z,1.00
2023-05-15T00:33:37.124Z,1.10
2023-05-15T00:34:37.274Z,0.90
2023-05-15T00:35:37.352Z,0.90
2023-05-15T00:36:37.076Z,0.90
2023-05-15T00:37:37.083Z,1.20
2023-05-15T00:38:37.034Z,1.10
2023-05-15T00:39:37.106Z,1.10
2023-05-15T00:40:37.030Z,0.80
2023-05-15T00:41:37.099Z,1.00
2023-05-15T00:42:37.001Z,1.00
2023-05-15T00:43:37.279Z,1.20
2023-05-15T00:44:37.055Z,1.10
2023-05-15T00:45:36.995Z,1.00
2023-05-15T00:46:37.010Z,1.10
2023-05-15T00:47:37.001Z,1.10
2023-05-15T00:48:36.952Z,0.90
2023-05-15T00:49:36.937Z,1.10
2023-05-15T00:50:36.966Z,1.10
2023-05-15T00:51:37.284Z,1.00
2023-05-15T00:52:36.900Z,0.90
2023-05-15T00:53:36.934Z,0.90
2023-05-15T00:54:36.875Z,1.10
2023-05-15T00:55:36.886Z,0.90
2023-05-15T00:56:36.847Z,1.00
2023-05-15T00:57:37.288Z,1.10
2023-05-15T00:58:36.819Z,1.00
2023-05-15T00:59:36.838Z,1.00
2023-05-15T01:00:37.301Z,1.00
2023-05-15T01:01:36.878Z,1.10
2023-05-15T01:02:36.853Z,1.10
2023-05-15T01:03:36.820Z,0.80
2023-05-15T01:04:36.763Z,1.00
2023-05-15T01:05:37.293Z,0.80
2023-05-15T01:06:37.006Z,1.10
2023-05-15T01:07:37.225Z,1.10
2023-05-15T01:08:36.710Z,1.00
2023-05-15T01:09:36.726Z,0.90
2023-05-15T01:10:36.685Z,1.30
2023-05-15T01:11:36.713Z,1.00
2023-05-15T01:12:36.655Z,1.00
2023-05-15T01:13:36.666Z,0.90
2023-05-15T01:14:36.647Z,1.00
2023-05-15T01:15:36.958Z,1.00
2023-05-15T01:16:36.995Z,1.00
2023-05-15T01:17:36.670Z,0.90
2023-05-15T01:18:36.714Z,1.00
2023-05-15T01:19:36.733Z,1.00
2023-05-15T01:20:36.569Z,1.10
2023-05-15T01:21:36.903Z,1.00
2023-05-15T01:22:36.550Z,1.00
2023-05-15T01:23:36.571Z,1.10
2023-05-15T01:24:36.870Z,1.00
2023-05-15T01:25:36.541Z,0.90
2023-05-15T01:26:36.525Z,0.80
2023-05-15T01:27:37.263Z,1.10
2023-05-15T01:28:36.476Z,1.10
2023-05-15T01:29:37.300Z,0.90
2023-05-15T01:30:37.218Z,0.80
2023-05-15T01:31:36.801Z,1.00
2023-05-15T01:32:36.561Z,0.90
2023-05-15T01:33:36.585Z,1.10
2023-05-15T01:34:37.204Z,0.90
2023-05-15T01:35:37.225Z,0.90
2023-05-15T01:36:36.554Z,1.00
2023-05-15T01:37:36.561Z,1.00
2023-05-15T01:38:37.336Z,1.00
2023-05-15T01:39:36.939Z,1.60
2023-05-15T01:40:36.354Z,1.00
2023-05-15T01:41:36.353Z,1.10
2023-05-15T01:42:36.322Z,1.10
2023-05-15T01:43:36.354Z,1.00
2023-05-15T01:44:36.293Z,0.90
2023-05-15T01:45:36.301Z,0.90
2023-05-15T01:46:36.392Z,1.10
2023-05-15T01:47:36.401Z,1.00
2023-05-15T01:48:36.338Z,1.20
2023-05-15T01:49:36.328Z,1.20
2023-05-15T01:50:36.230Z,0.90
2023-05-15T01:51:36.249Z,1.20
2023-05-15T01:52:36.303Z,0.90
2023-05-15T01:53:36.321Z,1.00
2023-05-15T01:54:36.328Z,0.80
2023-05-15T01:55:36.334Z,1.10
2023-05-15T01:56:36.329Z,1.10
2023-05-15T01:57:36.346Z,1.10
2023-05-15T01:58:36.507Z,1.00
2023-05-15T01:59:36.556Z,1.00
2023-05-15T02:00:36.208Z,1.10
2023-05-15T02:01:36.349Z,0.90
2023-05-15T02:02:36.425Z,0.90
2023-05-15T02:03:36.411Z,0.90
2023-05-15T02:04:36.342Z,0.90
2023-05-15T02:05:36.066Z,1.20
2023-05-15T02:06:36.338Z,1.10
2023-05-15T02:07:36.343Z,1.10
2023-05-15T02:08:36.223Z,0.80
2023-05-15T02:09:36.044Z,1.10
2023-05-15T02:10:36.000Z,0.90
2023-05-15T02:11:36.350Z,0.90
2023-05-15T02:12:35.997Z,0.90
2023-05-15T02:13:36.341Z,0.80
2023-05-15T02:14:35.948Z,0.90
2023-05-15T02:15:36.365Z,1.10
2023-05-15T02:16:36.120Z,1.00
2023-05-15T02:17:36.367Z,1.10
2023-05-15T02:18:36.439Z,0.90
2023-05-15T02:19:36.065Z,0.80
2023-05-15T02:20:36.351Z,1.00
2023-05-15T02:21:36.352Z,1.10
2023-05-15T02:22:35.961Z,1.00
2023-05-15T02:23:36.348Z,1.20
2023-05-15T02:24:36.095Z,1.00
2023-05-15T02:25:36.359Z,1.00
2023-05-15T02:26:36.350Z,1.30
2023-05-15T02:27:36.070Z,0.90
2023-05-15T02:28:36.352Z,1.00
2023-05-15T02:29:35.825Z,1.00
2023-05-15T02:30:36.368Z,1.00
2023-05-15T02:31:36.426Z,1.10
2023-05-15T02:32:35.746Z,1.10
2023-05-15T02:33:35.737Z,0.80
2023-05-15T02:34:35.771Z,1.10
2023-05-15T02:35:35.811Z,0.90
2023-05-15T02:36:35.840Z,0.90
2023-05-15T02:37:35.761Z,1.00
2023-05-15T02:38:35.655Z,1.00
2023-05-15T02:39:35.950Z,1.00
2023-05-15T02:40:36.004Z,1.00
2023-05-15T02:41:36.037Z,1.00
2023-05-15T02:42:36.064Z,1.00
2023-05-15T02:43:36.120Z,0.90
2023-05-15T02:44:36.132Z,1.20
2023-05-15T02:45:35.624Z,1.10
2023-05-15T02:46:36.212Z,1.20
2023-05-15T02:47:36.274Z,1.20
2023-05-15T02:48:36.277Z,1.10
2023-05-15T02:49:35.840Z,1.10
2023-05-15T02:50:36.351Z,1.10
2023-05-15T02:51:36.384Z,1.10
2023-05-15T02:52:35.806Z,1.00
2023-05-15T02:53:36.383Z,1.10
2023-05-15T02:54:35.489Z,1.10
2023-05-15T02:55:36.209Z,0.90
2023-05-15T02:56:36.376Z,1.10
2023-05-15T02:57:36.387Z,1.00
2023-05-15T02:58:36.156Z,0.90
2023-05-15T02:59:36.166Z,1.10
2023-05-15T03:00:35.433Z,0.90
2023-05-15T03:01:35.516Z,1.10
2023-05-15T03:02:35.416Z,1.00
2023-05-15T03:03:35.369Z,1.10
2023-05-15T03:04:35.440Z,1.10
2023-05-15T03:05:35.387Z,1.10
2023-05-15T03:06:35.372Z,1.10
2023-05-15T03:07:35.375Z,1.20
2023-05-15T03:08:35.386Z,1.00
2023-05-15T03:09:35.310Z,1.10
2023-05-15T03:10:35.321Z,1.10
2023-05-15T03:11:35.302Z,1.20
2023-05-15T03:12:35.393Z,1.10
2023-05-15T03:13:35.391Z,1.00
2023-05-15T03:14:35.283Z,1.00
2023-05-15T03:15:35.250Z,1.00
2023-05-15T03:16:35.267Z,1.30
2023-05-15T03:17:35.246Z,1.00
2023-05-15T03:18:35.254Z,0.90
2023-05-15T03:19:35.187Z,1.10
2023-05-15T03:20:35.397Z,1.00
2023-05-15T03:21:35.183Z,1.10
2023-05-15T03:22:35.406Z,1.00
2023-05-15T03:23:37.129Z,1.00
2023-05-15T03:24:35.400Z,1.00
2023-05-15T03:25:35.106Z,1.00
2023-05-15T03:26:35.165Z,1.30
2023-05-15T03:27:35.093Z,1.00
2023-05-15T03:28:35.276Z,1.10
2023-05-15T03:29:35.413Z,0.90
2023-05-15T03:30:35.109Z,0.90
2023-05-15T03:31:35.446Z,1.10
2023-05-15T03:32:35.427Z,1.10
2023-05-15T03:33:35.023Z,1.10
2023-05-15T03:34:35.051Z,1.20
2023-05-15T03:35:34.999Z,1.00
2023-05-15T03:36:35.005Z,1.20
2023-05-15T03:37:35.008Z,1.20
2023-05-15T03:38:35.411Z,1.10
2023-05-15T03:39:34.969Z,1.20
2023-05-15T03:40:34.968Z,1.20
2023-05-15T03:41:34.944Z,1.10
2023-05-15T03:42:34.949Z,1.10
2023-05-15T03:43:34.913Z,1.20
2023-05-15T03:44:35.412Z,1.00
2023-05-15T03:45:34.894Z,1.30
2023-05-15T03:46:34.943Z,1.00
2023-05-15T03:47:35.422Z,1.10
2023-05-15T03:48:34.879Z,1.10
2023-05-15T03:49:34.845Z,1.10
2023-05-15T03:50:34.866Z,1.10
2023-05-15T03:51:34.813Z,1.00
2023-05-15T03:52:34.831Z,1.00
2023-05-15T03:53:35.008Z,1.10
2023-05-15T03:54:34.812Z,1.00
2023-05-15T03:55:34.767Z,1.10
2023-05-15T03:56:35.072Z,1.20
2023-05-15T03:57:34.766Z,1.00
2023-05-15T03:58:34.785Z,1.10
2023-05-15T03:59:35.374Z,1.00
2023-05-15T04:00:35.361Z,1.20
2023-05-15T04:01:44.058Z,1.20
2023-05-15T04:02:35.812Z,1.00
2023-05-15T04:03:34.734Z,1.20
2023-05-15T04:04:34.698Z,1.30
2023-05-15T04:05:34.710Z,1.30
2023-05-15T04:06:34.674Z,1.10
2023-05-15T04:07:34.643Z,1.00
2023-05-15T04:08:34.868Z,1.20
2023-05-15T04:09:34.637Z,1.20
2023-05-15T04:10:34.620Z,1.40
2023-05-15T04:11:34.968Z,1.30
2023-05-15T04:12:34.617Z,1.20
2023-05-15T04:13:34.590Z,1.00
2023-05-15T04:14:35.047Z,1.40
2023-05-15T04:15:34.544Z,1.30
2023-05-15T04:16:34.591Z,1.30
2023-05-15T04:17:34.831Z,1.50
2023-05-15T04:18:34.968Z,1.20
2023-05-15T04:19:35.212Z,1.20
2023-05-15T04:20:34.763Z,1.10
2023-05-15T04:21:34.477Z,1.10
2023-05-15T04:22:34.482Z,1.30
2023-05-15T04:23:35.159Z,1.30
2023-05-15T04:24:34.859Z,1.30
2023-05-15T04:25:35.238Z,1.20
2023-05-15T04:26:34.535Z,1.40
2023-05-15T04:27:34.481Z,1.20
2023-05-15T04:28:34.418Z,1.40
2023-05-15T04:29:34.395Z,1.40
2023-05-15T04:30:34.403Z,1.40
2023-05-15T04:31:34.365Z,1.40
2023-05-15T04:32:34.441Z,1.50
2023-05-15T04:33:34.340Z,1.70
2023-05-15T04:34:34.419Z,1.30
2023-05-15T04:35:34.439Z,1.40
2023-05-15T04:36:34.444Z,1.30
2023-05-15T04:37:34.305Z,1.30
2023-05-15T04:38:34.482Z,1.50
2023-05-15T04:39:34.283Z,1.30
2023-05-15T04:40:34.486Z,1.60
2023-05-15T04:41:34.502Z,1.30
2023-05-15T04:42:34.522Z,1.70
2023-05-15T04:43:34.224Z,1.50
2023-05-15T04:44:34.528Z,1.30
2023-05-15T04:45:34.227Z,1.40
2023-05-15T04:46:34.692Z,1.20
2023-05-15T04:47:34.591Z,1.40
2023-05-15T04:48:34.468Z,1.80
2023-05-15T04:49:34.618Z,1.50
2023-05-15T04:50:34.175Z,1.50
2023-05-15T04:51:34.177Z,1.50
2023-05-15T04:52:34.200Z,1.80
2023-05-15T04:53:34.109Z,1.60
2023-05-15T04:54:34.266Z,1.70
2023-05-15T04:55:34.084Z,1.40
2023-05-15T04:56:34.112Z,1.70
2023-05-15T04:57:34.085Z,1.60
2023-05-15T04:58:34.074Z,1.60
2023-05-15T04:59:34.334Z,1.60
2023-05-15T05:00:34.444Z,1.50
2023-05-15T05:01:34.072Z,1.70
2023-05-15T05:02:34.053Z,1.50
2023-05-15T05:03:34.038Z,1.60
2023-05-15T05:04:34.482Z,1.40
2023-05-15T05:05:34.494Z,1.80
2023-05-15T05:06:33.994Z,1.40
2023-05-15T05:07:34.492Z,1.60
2023-05-15T05:08:34.490Z,1.90
2023-05-15T05:09:33.933Z,1.60
2023-05-15T05:10:33.931Z,1.80
2023-05-15T05:11:33.922Z,1.70
2023-05-15T05:12:34.487Z,1.50
2023-05-15T05:13:34.491Z,1.60
2023-05-15T05:14:33.882Z,1.70
2023-05-15T05:15:34.493Z,1.80
2023-05-15T05:16:33.961Z,1.50
2023-05-15T05:17:34.515Z,1.70
2023-05-15T05:18:33.889Z,1.60
2023-05-15T05:19:33.906Z,2.30
2023-05-15T05:20:33.850Z,2.10
2023-05-15T05:21:34.498Z,1.90
2023-05-15T05:22:33.796Z,2.10
2023-05-15T05:23:34.502Z,1.80
2023-05-15T05:24:34.511Z,2.00
2023-05-15T05:25:33.750Z,1.70
2023-05-15T05:26:33.768Z,1.80
2023-05-15T05:27:34.490Z,1.80
2023-05-15T05:28:33.740Z,1.90
2023-05-15T05:29:34.564Z,1.70
2023-05-15T05:30:33.712Z,1.60
2023-05-15T05:31:34.546Z,1.80
2023-05-15T05:32:34.316Z,1.90
2023-05-15T05:33:34.511Z,2.00
2023-05-15T05:34:34.183Z,2.10
2023-05-15T05:35:33.741Z,1.90
2023-05-15T05:36:34.508Z,2.10
2023-05-15T05:37:33.664Z,2.10
2023-05-15T05:38:33.619Z,2.00
2023-05-15T05:39:33.624Z,1.90
2023-05-15T05:40:33.648Z,2.10
2023-05-15T05:41:33.574Z,2.20
2023-05-15T05:42:33.565Z,2.40
2023-05-15T05:43:33.537Z,2.30
2023-05-15T05:44:33.546Z,2.40
2023-05-15T05:45:33.540Z,2.30
2023-05-15T05:46:33.545Z,2.50
2023-05-15T05:47:33.588Z,2.50
2023-05-15T05:48:33.524Z,2.40
2023-05-15T05:49:33.479Z,2.80
2023-05-15T05:50:33.531Z,3.20
2023-05-15T05:51:33.483Z,3.10
2023-05-15T05:52:33.525Z,3.30
2023-05-15T05:53:33.418Z,3.50
2023-05-15T05:54:33.428Z,3.60
2023-05-15T05:55:33.419Z,3.40
2023-05-15T05:56:33.428Z,3.50
2023-05-15T05:57:33.394Z,3.90
2023-05-15T05:58:33.382Z,3.30
2023-05-15T05:59:33.376Z,3.90
2023-05-15T06:00:33.368Z,3.60
2023-05-15T06:01:33.356Z,4.30
2023-05-15T06:02:33.413Z,4.10
2023-05-15T06:03:33.353Z,4.20
2023-05-15T06:04:33.424Z,4.40
2023-05-15T06:05:33.295Z,4.40
2023-05-15T06:06:33.297Z,5.20
2023-05-15T06:07:33.271Z,5.40
2023-05-15T06:08:33.532Z,5.90
2023-05-15T06:09:33.277Z,5.70
2023-05-15T06:10:33.249Z,6.20
2023-05-15T06:11:33.230Z,6.10
2023-05-15T06:12:33.222Z,7.00
2023-05-15T06:13:33.211Z,7.50
2023-05-15T06:14:33.248Z,7.20
2023-05-15T06:15:33.180Z,7.30
2023-05-15T06:16:33.576Z,7.20
2023-05-15T06:17:33.183Z,8.40
2023-05-15T06:18:33.246Z,8.20
2023-05-15T06:19:33.132Z,7.40
2023-05-15T06:20:33.134Z,6.90
2023-05-15T06:21:33.109Z,7.60
2023-05-15T06:22:33.117Z,7.80
2023-05-15T06:23:33.220Z,7.20
2023-05-15T06:24:33.548Z,7.90
2023-05-15T06:25:33.546Z,7.30
2023-05-15T06:26:33.131Z,8.70
2023-05-15T06:27:33.053Z,8.30
2023-05-15T06:28:33.045Z,8.00
2023-05-15T06:29:33.022Z,9.60
2023-05-15T06:30:33.061Z,8.40
2023-05-15T06:31:33.026Z,7.60
2023-05-15T06:32:34.343Z,8.50
2023-05-15T06:33:32.967Z,8.10
2023-05-15T06:34:32.998Z,8.20
2023-05-15T06:35:33.058Z,10.60
2023-05-15T06:36:32.953Z,9.90
2023-05-15T06:37:32.924Z,10.50
2023-05-15T06:38:32.922Z,8.40
2023-05-15T06:39:32.918Z,8.50
2023-05-15T06:40:32.921Z,9.00
2023-05-15T06:41:32.870Z,9.30
2023-05-15T06:42:32.908Z,8.30
2023-05-15T06:43:33.549Z,8.90
2023-05-15T06:44:32.851Z,8.80
2023-05-15T06:45:32.855Z,8.30
2023-05-15T06:46:32.941Z,9.80
2023-05-15T06:47:33.595Z,8.60
2023-05-15T06:48:32.820Z,8.40
2023-05-15T06:49:32.784Z,8.20
2023-05-15T06:50:32.801Z,8.30
2023-05-15T06:51:33.505Z,8.40
2023-05-15T06:52:32.769Z,8.00
2023-05-15T06:53:32.746Z,8.30
2023-05-15T06:54:32.748Z,7.90
2023-05-15T06:55:32.926Z,7.50
2023-05-15T06:56:32.726Z,8.00
2023-05-15T06:57:32.687Z,9.60
2023-05-15T06:58:32.683Z,9.00
2023-05-15T06:59:32.696Z,9.40
2023-05-15T07:00:32.695Z,8.50
2023-05-15T07:01:32.679Z,8.10
2023-05-15T07:02:32.667Z,8.80
2023-05-15T07:03:33.186Z,8.70
2023-05-15T07:04:32.702Z,8.10
2023-05-15T07:05:32.600Z,9.00
2023-05-15T07:06:32.645Z,8.70
2023-05-15T07:07:32.595Z,8.70
2023-05-15T07:08:32.592Z,10.00
2023-05-15T07:09:32.578Z,10.50
2023-05-15T07:10:32.562Z,9.90
2023-05-15T07:11:32.578Z,8.80
2023-05-15T07:12:32.528Z,8.40
2023-05-15T07:13:32.511Z,8.80
2023-05-15T07:14:32.516Z,8.30
2023-05-15T07:15:32.593Z,7.30
2023-05-15T07:16:32.526Z,9.80
2023-05-15T07:17:32.579Z,8.90
2023-05-15T07:18:32.567Z,9.10
2023-05-15T07:19:32.761Z,9.00
2023-05-15T07:20:34.852Z,8.30
2023-05-15T07:21:32.432Z,8.60
2023-05-15T07:22:34.418Z,9.70
2023-05-15T07:23:32.414Z,9.30
2023-05-15T07:24:32.376Z,8.70
2023-05-15T07:25:32.389Z,8.30
2023-05-15T07:26:38.387Z,8.40
2023-05-15T07:27:33.599Z,8.70
2023-05-15T07:28:32.359Z,9.10
2023-05-15T07:29:32.345Z,9.00
2023-05-15T07:30:32.326Z,9.70
2023-05-15T07:31:32.344Z,8.60
2023-05-15T07:32:32.318Z,8.30
2023-05-15T07:33:32.301Z,7.50
2023-05-15T07:34:32.272Z,8.00
2023-05-15T07:35:32.582Z,8.20
2023-05-15T07:36:32.582Z,9.20
2023-05-15T07:37:32.252Z,7.70
2023-05-15T07:38:32.605Z,10.70
2023-05-15T07:39:32.252Z,9.80
2023-05-15T07:40:32.196Z,9.70
2023-05-15T07:41:32.207Z,8.60
2023-05-15T07:42:32.162Z,10.20
2023-05-15T07:43:32.608Z,8.70
2023-05-15T07:44:32.399Z,8.80
2023-05-15T07:45:32.206Z,8.00
2023-05-15T07:46:32.161Z,8.90
2023-05-15T07:47:32.175Z,8.20
2023-05-15T07:48:32.102Z,8.30
2023-05-15T07:49:32.115Z,8.50
2023-05-15T07:50:32.077Z,8.20
2023-05-15T07:51:32.083Z,8.80
2023-05-15T07:52:32.088Z,9.30
2023-05-15T07:53:32.066Z,8.50
2023-05-15T07:54:32.104Z,8.80
2023-05-15T07:55:32.617Z,7.70
2023-05-15T07:56:32.032Z,8.80
2023-05-15T07:57:32.837Z,8.70
2023-05-15T07:58:32.002Z,8.30
2023-05-15T07:59:32.789Z,8.00
2023-05-15T08:00:31.974Z,8.20
2023-05-15T08:01:32.884Z,8.00
2023-05-15T08:02:32.016Z,7.60
2023-05-15T08:03:32.175Z,7.30
2023-05-15T08:04:31.994Z,7.40
2023-05-15T08:05:31.938Z,7.50
2023-05-15T08:06:31.890Z,8.00
2023-05-15T08:07:31.921Z,7.00
2023-05-15T08:08:31.863Z,8.50
2023-05-15T08:09:31.864Z,8.20
2023-05-15T08:10:32.261Z,8.80
2023-05-15T08:11:31.875Z,8.90
2023-05-15T08:12:32.180Z,8.00
2023-05-15T08:13:31.834Z,8.00
2023-05-15T08:14:31.816Z,9.00
2023-05-15T08:15:32.488Z,9.60
2023-05-15T08:16:31.857Z,7.70
2023-05-15T08:17:31.861Z,8.00
2023-05-15T08:18:32.557Z,7.10
2023-05-15T08:19:32.359Z,8.40
2023-05-15T08:20:31.744Z,8.30
2023-05-15T08:21:31.731Z,8.20
2023-05-15T08:22:32.630Z,7.50
2023-05-15T08:23:32.650Z,7.80
2023-05-15T08:24:31.683Z,7.00
2023-05-15T08:25:31.703Z,7.60
2023-05-15T08:26:32.574Z,7.10
2023-05-15T08:27:31.668Z,9.10
2023-05-15T08:28:31.643Z,7.90
2023-05-15T08:29:31.685Z,7.50
2023-05-15T08:30:31.605Z,6.60
2023-05-15T08:31:31.673Z,7.10
2023-05-15T08:32:31.601Z,6.50
2023-05-15T08:33:31.603Z,7.00
2023-05-15T08:34:31.635Z,6.70
2023-05-15T08:35:31.636Z,7.10
2023-05-15T08:36:31.585Z,6.70
2023-05-15T08:37:31.542Z,7.50
2023-05-15T08:38:31.532Z,10.30
2023-05-15T08:39:31.667Z,13.40
2023-05-15T08:40:39.123Z,14.10
2023-05-15T08:41:40.480Z,11.10
2023-05-15T08:42:34.208Z,12.90
2023-05-15T08:43:31.678Z,11.20
2023-05-15T08:44:31.447Z,10.90
2023-05-15T08:45:31.452Z,9.00
2023-05-15T08:46:31.470Z,8.70
2023-05-15T08:47:31.476Z,7.60
2023-05-15T08:48:31.516Z,7.70
2023-05-15T08:49:31.404Z,7.60
2023-05-15T08:50:31.388Z,10.30
2023-05-15T08:51:31.379Z,9.80
2023-05-15T08:52:31.389Z,9.10
2023-05-15T08:53:31.359Z,9.00
2023-05-15T08:54:31.342Z,8.20
2023-05-15T08:55:31.342Z,9.10
2023-05-15T08:56:31.311Z,10.10
2023-05-15T08:57:31.332Z,8.80
2023-05-15T08:58:31.287Z,8.70
2023-05-15T08:59:31.301Z,7.80
2023-05-15T09:00:31.254Z,8.00
2023-05-15T09:01:31.304Z,7.40
2023-05-15T09:02:31.292Z,7.40
2023-05-15T09:03:31.746Z,8.10
2023-05-15T09:04:31.224Z,7.70
2023-05-15T09:05:31.233Z,7.30
2023-05-15T09:06:31.191Z,7.00
2023-05-15T09:07:31.217Z,7.70
2023-05-15T09:08:31.198Z,8.10
2023-05-15T09:09:31.167Z,8.30
2023-05-15T09:10:31.157Z,9.70
2023-05-15T09:11:31.188Z,9.80
2023-05-15T09:12:31.128Z,9.20
2023-05-15T09:13:31.122Z,8.60
2023-05-15T09:14:31.120Z,10.10
2023-05-15T09:15:31.116Z,7.80
2023-05-15T09:16:31.131Z,8.30
2023-05-15T09:17:31.104Z,8.90
2023-05-15T09:18:31.077Z,8.80
2023-05-15T09:19:31.081Z,8.20
2023-05-15T09:20:31.056Z,9.50
2023-05-15T09:21:31.047Z,7.90
2023-05-15T09:22:31.025Z,7.90
2023-05-15T09:23:31.012Z,6.40
2023-05-15T09:24:31.011Z,6.60
2023-05-15T09:25:30.990Z,9.70
2023-05-15T09:26:30.964Z,8.50
2023-05-15T09:27:30.983Z,7.80
2023-05-15T09:28:30.967Z,7.50
2023-05-15T09:29:30.953Z,7.60
2023-05-15T09:30:30.966Z,7.50
2023-05-15T09:31:30.951Z,8.10
2023-05-15T09:32:30.926Z,6.90
2023-05-15T09:33:30.901Z,6.70
2023-05-15T09:34:30.891Z,6.80
2023-05-15T09:35:31.172Z,7.50
2023-05-15T09:36:30.854Z,8.50
2023-05-15T09:37:30.871Z,8.90
2023-05-15T09:38:30.899Z,7.40
2023-05-15T09:39:30.859Z,8.10
2023-05-15T09:40:30.812Z,8.10
2023-05-15T09:41:30.828Z,8.40
2023-05-15T09:42:30.781Z,8.90
2023-05-15T09:43:30.789Z,8.40
2023-05-15T09:44:30.756Z,8.70
2023-05-15T09:45:30.779Z,9.60
2023-05-15T09:46:30.794Z,8.40
2023-05-15T09:47:30.943Z,7.50
2023-05-15T09:48:30.739Z,7.60
2023-05-15T09:49:33.148Z,7.40
2023-05-15T09:50:30.694Z,8.90
2023-05-15T09:51:30.703Z,8.60
2023-05-15T09:52:30.659Z,7.90
2023-05-15T09:53:30.666Z,8.30
2023-05-15T09:54:30.645Z,8.70
2023-05-15T09:55:30.649Z,9.40
2023-05-15T09:56:30.646Z,9.70
2023-05-15T09:57:30.624Z,9.30
2023-05-15T09:58:30.607Z,8.80
2023-05-15T09:59:30.603Z,9.30
2023-05-15T10:00:32.566Z,9.70
2023-05-15T10:01:30.645Z,10.80
2023-05-15T10:02:30.589Z,9.40
2023-05-15T10:03:30.580Z,9.50
2023-05-15T10:04:30.534Z,10.30
2023-05-15T10:05:42.399Z,10.80
2023-05-15T10:06:31.526Z,9.90
2023-05-15T10:07:30.545Z,9.40
2023-05-15T10:08:30.481Z,9.50
2023-05-15T10:09:30.482Z,8.80
2023-05-15T10:10:30.476Z,8.40
2023-05-15T10:11:30.492Z,8.30
2023-05-15T10:12:30.442Z,8.90
2023-05-15T10:13:30.443Z,8.10
2023-05-15T10:14:30.418Z,7.40
2023-05-15T10:15:30.417Z,7.50
2023-05-15T10:16:30.500Z,9.20
2023-05-15T10:17:30.504Z,10.20
2023-05-15T10:18:30.399Z,8.50
2023-05-15T10:19:30.381Z,7.80
2023-05-15T10:20:30.344Z,7.40
2023-05-15T10:21:30.351Z,7.20
2023-05-15T10:22:30.375Z,6.90
2023-05-15T10:23:30.342Z,7.30
2023-05-15T10:24:30.286Z,7.50
2023-05-15T10:25:30.310Z,7.70
2023-05-15T10:26:30.289Z,8.10
2023-05-15T10:27:30.282Z,8.40
2023-05-15T10:28:30.267Z,7.70
2023-05-15T10:29:30.280Z,7.60
2023-05-15T10:30:30.234Z,7.60
2023-05-15T10:31:30.255Z,8.70
2023-05-15T10:32:30.252Z,9.60
2023-05-15T10:33:30.243Z,9.30
2023-05-15T10:34:30.181Z,8.40
2023-05-15T10:35:30.182Z,7.90
2023-05-15T10:36:30.162Z,7.40
2023-05-15T10:37:30.174Z,7.90
2023-05-15T10:38:30.167Z,7.30
2023-05-15T10:39:30.166Z,7.80
2023-05-15T10:40:30.133Z,7.00
2023-05-15T10:41:30.128Z,7.30
2023-05-15T10:42:30.110Z,7.10
2023-05-15T10:43:30.115Z,6.60
2023-05-15T10:44:30.058Z,6.20
2023-05-15T10:45:30.076Z,7.30
2023-05-15T10:46:30.122Z,6.40
2023-05-15T10:47:30.096Z,6.40
2023-05-15T10:48:30.051Z,7.20
2023-05-15T10:49:30.028Z,7.10
2023-05-15T10:50:30.173Z,6.30
2023-05-15T10:51:30.060Z,6.70
2023-05-15T10:52:29.974Z,6.00
2023-05-15T10:53:29.988Z,6.50
2023-05-15T10:54:29.951Z,6.30
2023-05-15T10:55:29.982Z,5.90
2023-05-15T10:56:29.956Z,6.20
2023-05-15T10:57:29.938Z,6.30
2023-05-15T10:58:29.920Z,6.10
2023-05-15T10:59:29.903Z,7.10
2023-05-15T11:00:30.592Z,7.70
2023-05-15T11:01:29.933Z,6.10
2023-05-15T11:02:29.887Z,6.00
2023-05-15T11:03:34.961Z,6.90
2023-05-15T11:04:30.886Z,6.70
2023-05-15T11:05:29.842Z,7.60
2023-05-15T11:06:29.801Z,6.80
2023-05-15T11:07:29.824Z,6.90
2023-05-15T11:08:29.834Z,6.80
2023-05-15T11:09:29.797Z,7.20
2023-05-15T11:10:29.781Z,8.00
2023-05-15T11:11:29.762Z,7.70
2023-05-15T11:12:29.739Z,7.00
2023-05-15T11:13:29.766Z,6.80
2023-05-15T11:14:29.709Z,7.10
2023-05-15T11:15:29.722Z,6.70
2023-05-15T11:16:29.713Z,6.40
2023-05-15T11:17:29.757Z,6.40
2023-05-15T11:18:29.728Z,8.00
2023-05-15T11:19:29.719Z,7.60
2023-05-15T11:20:29.642Z,7.10
2023-05-15T11:21:29.651Z,6.30
2023-05-15T11:22:29.627Z,6.40
2023-05-15T11:23:29.624Z,6.10
2023-05-15T11:24:29.640Z,6.30
2023-05-15T11:25:29.602Z,6.60
2023-05-15T11:26:29.591Z,7.20
2023-05-15T11:27:29.571Z,8.90
2023-05-15T11:28:31.583Z,8.00
2023-05-15T11:29:29.593Z,8.70
2023-05-15T11:30:29.529Z,8.40
2023-05-15T11:31:29.556Z,8.10
2023-05-15T11:32:29.533Z,7.30
2023-05-15T11:33:29.521Z,7.30
2023-05-15T11:34:29.502Z,6.90
2023-05-15T11:35:29.482Z,5.80
2023-05-15T11:36:29.476Z,5.50
2023-05-15T11:37:29.458Z,7.30
2023-05-15T11:38:29.472Z,5.30
2023-05-15T11:39:29.430Z,5.60
2023-05-15T11:40:29.494Z,5.30
2023-05-15T11:41:29.401Z,5.30
2023-05-15T11:42:29.400Z,7.40
2023-05-15T11:43:29.400Z,7.90
2023-05-15T11:44:29.387Z,6.60
2023-05-15T11:45:29.382Z,6.50
2023-05-15T11:46:29.432Z,6.80
2023-05-15T11:47:29.337Z,6.60
2023-05-15T11:48:29.341Z,5.70
2023-05-15T11:49:29.322Z,5.50
2023-05-15T11:50:29.330Z,6.20
2023-05-15T11:51:29.310Z,6.00
2023-05-15T11:52:29.292Z,6.80
2023-05-15T11:53:29.266Z,7.10
2023-05-15T11:54:29.277Z,7.40
2023-05-15T11:55:29.253Z,7.10
2023-05-15T11:56:29.267Z,6.60
2023-05-15T11:57:29.223Z,6.60
2023-05-15T11:58:29.233Z,7.50
2023-05-15T11:59:29.203Z,7.10
2023-05-15T12:00:29.212Z,6.10
2023-05-15T12:01:29.216Z,6.60
2023-05-15T12:02:29.269Z,6.80
2023-05-15T12:03:29.261Z,6.30
2023-05-15T12:04:29.241Z,7.10
2023-05-15T12:05:29.174Z,6.40
2023-05-15T12:06:29.168Z,5.70
2023-05-15T12:07:29.119Z,6.70
2023-05-15T12:08:29.118Z,5.90
2023-05-15T12:09:29.100Z,5.30
2023-05-15T12:10:29.098Z,5.20
2023-05-15T12:11:29.071Z,4.70
2023-05-15T12:12:29.099Z,3.90
2023-05-15T12:13:29.055Z,4.80
2023-05-15T12:14:29.056Z,5.80
2023-05-15T12:15:29.026Z,5.50
2023-05-15T12:16:29.084Z,6.30
2023-05-15T12:17:29.103Z,5.70
2023-05-15T12:18:29.155Z,4.50
2023-05-15T12:19:28.971Z,5.00
2023-05-15T12:20:28.975Z,5.40
2023-05-15T12:21:28.970Z,5.10
2023-05-15T12:22:28.977Z,5.10
2023-05-15T12:23:28.997Z,4.70
2023-05-15T12:24:28.940Z,5.40
2023-05-15T12:25:29.831Z,8.60
2023-05-15T12:26:28.935Z,7.80
2023-05-15T12:27:28.920Z,8.30
2023-05-15T12:28:28.928Z,7.50
2023-05-15T12:29:28.869Z,7.00
2023-05-15T12:30:28.886Z,7.80
2023-05-15T12:31:28.890Z,8.40
2023-05-15T12:32:28.944Z,7.80
2023-05-15T12:33:28.843Z,6.80
2023-05-15T12:34:28.839Z,7.50
2023-05-15T12:35:28.793Z,6.60
2023-05-15T12:36:28.816Z,6.20
2023-05-15T12:37:28.797Z,6.20
2023-05-15T12:38:28.794Z,5.80
2023-05-15T12:39:28.770Z,6.60
2023-05-15T12:40:28.762Z,6.70
2023-05-15T12:41:28.850Z,8.00
2023-05-15T12:42:28.758Z,6.90
2023-05-15T12:43:28.713Z,6.90
2023-05-15T12:44:28.720Z,6.00
2023-05-15T12:45:28.680Z,6.10
2023-05-15T12:46:28.778Z,5.50
2023-05-15T12:49:30.613Z,5.90
2023-05-15T12:50:30.875Z,5.90
2023-05-15T12:51:33.198Z,5.70
2023-05-15T12:52:30.570Z,5.00
2023-05-15T12:53:30.503Z,5.00
2023-05-15T12:54:30.513Z,5.10
2023-05-15T12:55:30.456Z,4.80
2023-05-15T12:56:30.479Z,4.30
2023-05-15T12:57:30.447Z,4.10
2023-05-15T12:58:30.430Z,3.90
2023-05-15T12:59:30.453Z,5.50
2023-05-15T13:00:30.416Z,5.50
2023-05-15T13:01:30.401Z,5.60
2023-05-15T13:02:30.972Z,5.70
2023-05-15T13:03:30.900Z,5.80
2023-05-15T13:04:30.355Z,4.90
2023-05-15T13:05:30.350Z,5.50
2023-05-15T13:06:44.811Z,5.80
2023-05-15T13:07:31.317Z,5.50
2023-05-15T13:08:30.323Z,4.90
2023-05-15T13:09:30.289Z,4.60
2023-05-15T13:10:30.310Z,5.20
2023-05-15T13:11:30.275Z,4.30
2023-05-15T13:12:30.272Z,3.80
2023-05-15T13:13:30.250Z,3.70
2023-05-15T13:14:30.251Z,3.90
2023-05-15T13:15:30.230Z,3.80
2023-05-15T13:16:30.330Z,4.40
2023-05-15T13:17:30.211Z,3.30
2023-05-15T13:18:30.374Z,3.60
2023-05-15T13:19:30.171Z,3.50